Time;durP1;ratioP1;P1;durP2;ratioP2;P2;SDS_P1;SDS_P2;PMS_P1;PMS_P2;Temp;Humidity;BMP_temperature;BMP_pressure;BME280_temperature;BME280_humidity;BME280_pressure;Samples;Min_cycle;Max_cycle;Signal;HPM_P1;HPM_P2
2022/11/26 00:01:15;;;;;;;1999.90;999.90;;;;;;;3.84;100.00;98540.47;5043990;28;20042;-73
2022/11/26 00:03:41;;;;;;;1999.90;999.90;;;;;;;3.89;100.00;98538.69;5042029;28;20046;-74
2022/11/26 00:06:21;;;;;;;1999.90;999.90;;;;;;;3.71;100.00;98541.53;5050278;28;20036;-73
2022/11/26 00:08:46;;;;;;;1999.90;999.90;;;;;;;3.76;100.00;98541.63;5056489;28;20035;-73
2022/11/26 00:11:15;;;;;;;1999.90;999.90;;;;;;;3.71;100.00;98539.66;5051812;28;20432;-73
2022/11/26 00:13:40;;;;;;;1999.90;999.90;;;;;;;3.68;100.00;98533.91;5058318;28;20066;-73
2022/11/26 00:16:11;;;;;;;1999.90;999.90;;;;;;;3.60;100.00;98543.19;5044378;28;20431;-73
2022/11/26 00:18:36;;;;;;;1999.90;999.90;;;;;;;3.63;100.00;98541.91;5046351;28;20017;-73
2022/11/26 00:21:03;;;;;;;1999.90;999.90;;;;;;;3.64;100.00;98546.25;5049433;28;20078;-73
2022/11/26 00:23:28;;;;;;;1999.90;999.90;;;;;;;3.59;100.00;98543.44;5050076;28;20114;-73
2022/11/26 00:25:58;;;;;;;1999.90;999.90;;;;;;;3.51;100.00;98543.81;5048582;28;20182;-73
2022/11/26 00:28:34;;;;;;;1999.90;999.90;;;;;;;3.55;100.00;98550.38;5047385;28;20035;-73
2022/11/26 00:31:05;;;;;;;1999.90;999.90;;;;;;;3.47;100.00;98550.72;5049372;28;20025;-73
2022/11/26 00:33:31;;;;;;;1999.90;999.90;;;;;;;3.52;100.00;98553.53;5049772;28;20492;-73
2022/11/26 00:36:01;;;;;;;1999.90;999.90;;;;;;;3.59;100.00;98563.19;5047821;28;20025;-73
2022/11/26 00:38:28;;;;;;;1999.90;999.90;;;;;;;3.66;100.00;98563.06;5048198;28;20032;-73
2022/11/26 00:40:54;;;;;;;1999.90;999.90;;;;;;;3.62;100.00;98561.91;5049320;28;20017;-73
2022/11/26 00:43:19;;;;;;;1999.90;999.90;;;;;;;3.54;100.00;98562.25;5049253;28;20029;-73
2022/11/26 00:45:46;;;;;;;1999.90;999.90;;;;;;;3.51;100.00;98565.44;5045158;28;20040;-73
2022/11/26 00:48:12;;;;;;;1999.90;999.90;;;;;;;3.41;100.00;98567.91;5048185;28;20051;-73
2022/11/26 00:50:41;;;;;;;1999.90;999.90;;;;;;;3.51;100.00;98578.97;5036189;28;20030;-73
2022/11/26 00:53:11;;;;;;;1999.90;999.90;;;;;;;3.51;100.00;98576.25;5046939;28;20021;-73
2022/11/26 00:55:40;;;;;;;1999.90;999.90;;;;;;;3.53;100.00;98584.94;5036771;28;20033;-74
2022/11/26 00:58:12;;;;;;;1999.90;999.90;;;;;;;3.51;100.00;98587.06;5050625;28;20041;-73
2022/11/26 01:00:37;;;;;;;1999.90;999.90;;;;;;;3.45;100.00;98599.63;5049926;28;20075;-73
2022/11/26 01:03:03;;;;;;;1999.90;999.90;;;;;;;3.43;100.00;98603.63;5030856;28;20481;-73
2022/11/26 01:05:32;;;;;;;1999.90;999.90;;;;;;;3.36;100.00;98606.44;5030731;28;20052;-74
2022/11/26 01:08:01;;;;;;;1999.90;999.90;;;;;;;3.35;100.00;98606.69;5030763;28;20037;-73
2022/11/26 01:10:28;;;;;;;1999.90;999.90;;;;;;;3.34;100.00;98602.31;5029349;28;20028;-73
2022/11/26 01:12:54;;;;;;;1999.90;999.90;;;;;;;3.26;100.00;98608.06;5030350;28;20116;-73
2022/11/26 01:15:22;;;;;;;1999.90;999.90;;;;;;;3.27;100.00;98612.41;5030366;28;20030;-73
2022/11/26 01:17:47;;;;;;;1999.90;999.90;;;;;;;3.23;100.00;98620.16;5047225;28;20029;-73
2022/11/26 01:20:19;;;;;;;1999.90;999.90;;;;;;;3.27;100.00;98615.94;5052487;28;20033;-74
2022/11/26 01:22:44;;;;;;;1999.90;999.90;;;;;;;3.16;100.00;98633.75;5057569;28;20028;-73
2022/11/26 01:25:09;;;;;;;1999.90;999.90;;;;;;;3.17;100.00;98624.63;5053249;28;20036;-73
2022/11/26 01:27:35;;;;;;;1999.90;999.90;;;;;;;3.15;100.00;98621.31;5054543;28;20470;-73
2022/11/26 01:30:00;;;;;;;1999.90;999.90;;;;;;;3.08;100.00;98627.88;5054464;28;20493;-73
2022/11/26 01:32:25;;;;;;;1999.90;999.90;;;;;;;3.07;100.00;98628.94;5054318;28;20116;-73
2022/11/26 01:34:51;;;;;;;1999.90;999.90;;;;;;;3.17;100.00;98629.19;5054489;28;20106;-73
2022/11/26 01:37:16;;;;;;;1999.90;999.90;;;;;;;3.09;100.00;98632.22;5054064;28;20040;-74
2022/11/26 01:39:41;;;;;;;1999.90;999.90;;;;;;;3.09;100.00;98632.22;5054288;28;20049;-73
2022/11/26 01:42:42;;;;;;;1999.90;999.90;;;;;;;3.12;100.00;98632.59;5053996;28;20413;-73
2022/11/26 01:45:16;;;;;;;1999.90;999.90;;;;;;;3.10;100.00;98634.69;5053895;28;20052;-73
2022/11/26 01:47:42;;;;;;;1999.90;999.90;;;;;;;3.17;100.00;98640.00;5054097;28;20025;-73
2022/11/26 01:50:29;;;;;;;1999.90;999.90;;;;;;;3.13;100.00;98641.53;5054043;28;20044;-74
2022/11/26 01:52:59;;;;;;;1999.90;999.90;;;;;;;3.07;100.00;98635.16;5054075;28;20036;-73
2022/11/26 01:55:46;;;;;;;1999.90;999.90;;;;;;;3.10;100.00;98634.69;5053708;28;20071;-73
2022/11/26 01:58:16;;;;;;;1999.90;999.90;;;;;;;3.03;100.00;98643.97;5053929;28;20025;-73
2022/11/26 02:00:41;;;;;;;1999.90;999.90;;;;;;;3.09;100.00;98641.16;5053726;28;20074;-73
2022/11/26 02:03:08;;;;;;;1999.90;999.90;;;;;;;3.05;100.00;98641.84;5053886;28;20385;-73
2022/11/26 02:05:41;;;;;;;1999.90;999.90;;;;;;;2.97;100.00;98653.81;5053822;28;20102;-73
2022/11/26 02:08:08;;;;;;;1999.90;999.90;;;;;;;2.91;100.00;98637.69;5053666;28;20038;-73
2022/11/26 02:10:33;;;;;;;1999.90;999.90;;;;;;;2.98;100.00;98649.22;5053648;28;20520;-73
2022/11/26 02:12:59;;;;;;;1999.90;999.90;;;;;;;2.89;100.00;98643.31;5053550;28;20065;-73
2022/11/26 02:15:30;;;;;;;1999.90;999.90;;;;;;;2.88;100.00;98647.06;5053499;28;20436;-73
2022/11/26 02:18:05;;;;;;;1999.90;999.90;;;;;;;2.84;100.00;98645.91;5053432;28;20501;-73
2022/11/26 02:20:49;;;;;;;1999.90;999.90;;;;;;;2.73;100.00;98652.06;5053378;28;20037;-73
2022/11/26 02:23:44;;;;;;;1999.90;999.90;;;;;;;2.86;100.00;98651.88;5053479;28;20029;-72
2022/11/26 02:26:21;;;;;;;1999.90;999.90;;;;;;;2.88;100.00;98651.66;5050587;28;20028;-73
2022/11/26 02:29:28;;;;;;;1999.90;999.90;;;;;;;2.83;100.00;98657.75;5051999;28;20692;-74
2022/11/26 02:32:07;;;;;;;1999.90;999.90;;;;;;;2.87;100.00;98661.63;5050303;28;20135;-74
2022/11/26 02:34:44;;;;;;;1999.90;999.90;;;;;;;2.92;100.00;98664.47;5053811;28;20543;-74
2022/11/26 02:37:17;;;;;;;1999.90;999.90;;;;;;;2.92;100.00;98664.47;5051833;28;20052;-74
2022/11/26 02:39:42;;;;;;;1999.90;999.90;;;;;;;2.95;100.00;98664.00;5053113;28;20025;-73
2022/11/26 02:42:27;;;;;;;1999.90;999.90;;;;;;;2.96;100.00;98660.25;5053115;28;20632;-74
2022/11/26 02:44:55;;;;;;;1999.90;999.90;;;;;;;3.02;100.00;98669.31;5042690;28;20033;-74
2022/11/26 02:47:25;;;;;;;1999.90;999.90;;;;;;;3.04;100.00;98662.63;5052212;28;20063;-73
2022/11/26 02:49:53;;;;;;;1999.90;999.90;;;;;;;2.97;100.00;98667.34;5043236;28;20060;-74
2022/11/26 02:52:20;;;;;;;1999.90;999.90;;;;;;;3.01;100.00;98679.31;5031322;28;20079;-74
2022/11/26 02:54:48;;;;;;;1999.90;999.90;;;;;;;2.87;100.00;98671.63;5031400;28;20022;-73
2022/11/26 02:57:17;;;;;;;1999.90;999.90;;;;;;;2.89;100.00;98674.91;5032528;28;20037;-74
2022/11/26 02:59:43;;;;;;;1999.90;999.90;;;;;;;2.82;100.00;98680.38;5032415;28;20025;-73
2022/11/26 03:02:16;;;;;;;1999.90;999.90;;;;;;;2.79;100.00;98693.56;5032281;28;20021;-73
2022/11/26 03:04:46;;;;;;;1999.90;999.90;;;;;;;2.84;100.00;98682.88;5032455;28;20515;-73
2022/11/26 03:07:13;;;;;;;1999.90;999.90;;;;;;;2.93;100.00;98687.75;5031120;28;20041;-73
2022/11/26 03:09:40;;;;;;;1999.90;999.90;;;;;;;2.87;100.00;98685.94;5032352;28;20159;-73
2022/11/26 03:12:06;;;;;;;1999.90;999.90;;;;;;;2.67;100.00;98686.19;5032401;28;20029;-73
2022/11/26 03:14:32;;;;;;;1999.90;999.90;;;;;;;2.57;100.00;98679.66;5030926;28;20025;-73
2022/11/26 03:16:57;;;;;;;1999.90;999.90;;;;;;;2.40;100.00;98681.34;5030529;28;20032;-73
2022/11/26 03:19:22;;;;;;;1999.90;999.90;;;;;;;2.34;100.00;98687.63;5032145;28;20083;-73
2022/11/26 03:21:48;;;;;;;1999.90;999.90;;;;;;;2.25;100.00;98680.91;5032122;28;20067;-73
2022/11/26 03:24:13;;;;;;;1999.90;999.90;;;;;;;2.23;100.00;98691.06;5032040;28;20048;-73
2022/11/26 03:26:38;;;;;;;1999.90;999.90;;;;;;;2.33;100.00;98694.06;5032117;28;20033;-73
2022/11/26 03:29:04;;;;;;;1999.90;999.90;;;;;;;2.31;100.00;98693.50;5033521;28;20025;-75
2022/11/26 03:31:29;;;;;;;1999.90;999.90;;;;;;;2.27;100.00;98706.59;5034874;28;20025;-73
2022/11/26 03:33:54;;;;;;;1999.90;999.90;;;;;;;2.32;100.00;98701.34;5031635;28;20036;-73
2022/11/26 03:36:20;;;;;;;1999.90;999.90;;;;;;;2.31;100.00;98709.69;5031827;28;20100;-73
2022/11/26 03:38:45;;;;;;;1999.90;999.90;;;;;;;2.17;100.00;98707.13;5030692;28;20099;-73
2022/11/26 03:41:10;;;;;;;1999.90;999.90;;;;;;;2.20;100.00;98708.53;5029386;28;20033;-73
2022/11/26 03:43:36;;;;;;;1999.90;999.90;;;;;;;2.16;100.00;98723.53;5029959;28;20035;-73
2022/11/26 03:46:01;;;;;;;1999.90;999.90;;;;;;;2.09;100.00;98718.22;5030064;28;20116;-73
2022/11/26 03:48:26;;;;;;;1999.90;999.90;;;;;;;2.05;100.00;98716.16;5030530;28;20478;-73
2022/11/26 03:50:52;;;;;;;1999.90;999.90;;;;;;;2.06;100.00;98718.66;5031469;28;20051;-73
2022/11/26 03:53:17;;;;;;;1999.90;999.90;;;;;;;1.99;100.00;98725.97;5031305;28;20029;-73
2022/11/26 03:55:43;;;;;;;1999.90;999.90;;;;;;;1.91;100.00;98722.75;5031279;28;20029;-74
2022/11/26 03:58:09;;;;;;;1999.90;999.90;;;;;;;1.90;100.00;98732.69;5031506;28;20116;-73
2022/11/26 04:00:34;;;;;;;1999.90;999.90;;;;;;;1.85;100.00;98734.41;5030047;28;20163;-74
2022/11/26 04:02:59;;;;;;;1999.90;999.90;;;;;;;1.80;100.00;98735.06;5031798;28;21086;-74
2022/11/26 04:05:25;;;;;;;1999.90;999.90;;;;;;;1.72;100.00;98743.44;5031460;28;20041;-73
2022/11/26 04:07:50;;;;;;;1999.90;999.90;;;;;;;1.69;100.00;98749.25;5038670;28;20017;-73
2022/11/26 04:10:16;;;;;;;1999.90;999.90;;;;;;;1.55;100.00;98747.69;5051273;28;20037;-73
2022/11/26 04:12:41;;;;;;;1999.90;999.90;;;;;;;1.49;100.00;98749.41;5051157;28;20021;-73
2022/11/26 04:15:07;;;;;;;1999.90;999.90;;;;;;;1.54;100.00;98762.19;5050821;28;20029;-73
2022/11/26 04:17:32;;;;;;;1999.90;999.90;;;;;;;1.61;100.00;98761.13;5051107;28;20021;-73
2022/11/26 04:19:57;;;;;;;1999.90;999.90;;;;;;;1.58;100.00;98753.47;5051148;28;20043;-74
2022/11/26 04:22:23;;;;;;;1999.90;999.90;;;;;;;1.63;100.00;98775.19;5049870;28;20036;-74
2022/11/26 04:24:48;;;;;;;1999.90;999.90;;;;;;;1.55;100.00;98775.47;5050893;28;20032;-74
2022/11/26 04:27:13;;;;;;;1999.90;999.90;;;;;;;1.68;100.00;98789.91;5050726;28;20107;-73
2022/11/26 04:29:39;;;;;;;1999.90;999.90;;;;;;;1.56;100.00;98784.41;5048890;28;20025;-74
2022/11/26 04:32:05;;;;;;;1999.90;999.90;;;;;;;1.46;100.00;98778.66;5038617;28;20025;-74
2022/11/26 04:34:30;;;;;;;1999.90;999.90;;;;;;;1.34;100.00;98791.16;5051172;28;20466;-73
2022/11/26 04:36:56;;;;;;;1999.90;999.90;;;;;;;1.41;100.00;98787.38;5038123;28;20187;-73
2022/11/26 04:39:21;;;;;;;1999.90;999.90;;;;;;;1.42;100.00;98790.88;5030743;28;20536;-73
2022/11/26 04:41:46;;;;;;;1999.90;999.90;;;;;;;1.41;100.00;98795.44;5030657;28;20517;-74
2022/11/26 04:44:12;;;;;;;1999.90;999.90;;;;;;;1.50;100.00;98798.75;5043580;28;20174;-73
2022/11/26 04:46:37;;;;;;;1999.90;999.90;;;;;;;1.49;100.00;98802.47;5049978;28;20150;-73
2022/11/26 04:49:03;;;;;;;1999.90;999.90;;;;;;;1.50;100.00;98798.75;5050675;28;20454;-73
2022/11/26 04:51:28;;;;;;;1999.90;999.90;;;;;;;1.46;100.00;98797.50;5048988;28;20111;-73
2022/11/26 04:53:53;;;;;;;1999.90;999.90;;;;;;;1.49;100.00;98806.00;5050076;28;20449;-73
2022/11/26 04:56:19;;;;;;;1999.90;999.90;;;;;;;1.60;100.00;98801.75;5049958;28;20144;-73
2022/11/26 04:58:44;;;;;;;1999.90;999.90;;;;;;;1.61;100.00;98800.72;5050522;28;20036;-73
2022/11/26 05:01:09;;;;;;;1999.90;999.90;;;;;;;1.60;100.00;98808.00;5050244;28;20025;-73
2022/11/26 05:03:35;;;;;;;1999.90;999.90;;;;;;;1.57;100.00;98815.69;5049936;28;20039;-74
2022/11/26 05:06:03;;;;;;;1999.90;999.90;;;;;;;1.44;100.00;98821.97;5050326;28;20081;-74
2022/11/26 05:08:28;;;;;;;1999.90;999.90;;;;;;;1.50;100.00;98825.69;5050220;28;20029;-74
2022/11/26 05:10:54;;;;;;;1999.90;999.90;;;;;;;1.53;100.00;98819.88;5050495;28;20480;-74
2022/11/26 05:13:19;;;;;;;1999.90;999.90;;;;;;;1.59;100.00;98817.13;5050053;28;20086;-73
2022/11/26 05:15:45;;;;;;;1999.90;999.90;;;;;;;1.58;100.00;98828.94;5048862;28;20129;-73
2022/11/26 05:18:10;;;;;;;1999.90;999.90;;;;;;;1.58;100.00;98828.13;5048878;28;20032;-73
2022/11/26 05:20:35;;;;;;;1999.90;999.90;;;;;;;1.61;100.00;98841.16;5048510;28;20035;-73
2022/11/26 05:23:01;;;;;;;1999.90;999.90;;;;;;;1.74;100.00;98841.09;5037897;28;20032;-74
2022/11/26 05:25:26;;;;;;;1999.90;999.90;;;;;;;1.74;100.00;98838.41;5050199;28;20090;-74
2022/11/26 05:27:51;;;;;;;1999.90;999.90;;;;;;;1.75;100.00;98839.22;5038986;28;20026;-74
2022/11/26 05:30:17;;;;;;;1999.90;999.90;;;;;;;1.59;100.00;98836.00;5030169;28;20466;-73
2022/11/26 05:32:42;;;;;;;1999.90;999.90;;;;;;;1.55;100.00;98844.72;5030316;28;20025;-74
2022/11/26 05:35:07;;;;;;;1999.90;999.90;;;;;;;1.56;100.00;98855.31;5030362;28;20426;-74
2022/11/26 05:37:33;;;;;;;1999.90;999.90;;;;;;;1.42;100.00;98858.25;5029465;28;20112;-74
2022/11/26 05:39:58;;;;;;;1999.90;999.90;;;;;;;1.37;100.00;98853.53;5042548;28;20021;-74
2022/11/26 05:42:23;;;;;;;1999.90;999.90;;;;;;;1.34;100.00;98858.53;5051871;28;20040;-73
2022/11/26 05:44:49;;;;;;;1999.90;999.90;;;;;;;1.34;100.00;98869.31;5049883;28;20025;-74
2022/11/26 05:47:14;;;;;;;1999.90;999.90;;;;;;;1.20;100.00;98868.50;5049794;28;20178;-73
2022/11/26 05:49:39;;;;;;;1999.90;999.90;;;;;;;1.07;100.00;98855.91;5048070;28;20025;-74
2022/11/26 05:52:05;;;;;;;1999.90;999.90;;;;;;;1.20;100.00;98862.28;5048592;28;20036;-74
2022/11/26 05:54:30;;;;;;;1999.90;999.90;;;;;;;1.15;100.00;98864.81;5049709;28;20025;-74
2022/11/26 05:56:57;;;;;;;1999.90;999.90;;;;;;;1.11;100.00;98879.72;5049878;28;20025;-73
2022/11/26 05:59:23;;;;;;;1999.90;999.90;;;;;;;1.12;100.00;98876.84;5049327;28;20032;-73
2022/11/26 06:01:49;;;;;;;1999.90;999.90;;;;;;;1.25;100.00;98881.38;5049629;28;20769;-72
2022/11/26 06:04:14;;;;;;;1999.90;999.90;;;;;;;1.27;100.00;98880.09;5049590;28;20128;-73
2022/11/26 06:06:39;;;;;;;1999.90;999.90;;;;;;;1.20;100.00;98878.47;5050074;28;20120;-73
2022/11/26 06:09:05;;;;;;;1999.90;999.90;;;;;;;1.02;100.00;98887.22;5052231;28;20036;-74
2022/11/26 06:11:30;;;;;;;1999.90;999.90;;;;;;;1.03;100.00;98876.22;5053359;28;20413;-74
2022/11/26 06:14:04;;;;;;;1999.90;999.90;;;;;;;1.01;100.00;98872.09;5053161;28;20035;-73
2022/11/26 06:16:30;;;;;;;1999.90;999.90;;;;;;;0.98;100.00;98873.34;5053251;28;20033;-73
2022/11/26 06:18:55;;;;;;;1999.90;999.90;;;;;;;1.01;100.00;98886.41;5053371;28;20024;-73
2022/11/26 06:21:21;;;;;;;1999.90;999.90;;;;;;;0.96;100.00;98896.16;5051920;28;20051;-73
2022/11/26 06:23:46;;;;;;;1999.90;999.90;;;;;;;0.89;100.00;98892.63;5052920;28;20028;-74
2022/11/26 06:26:12;;;;;;;1999.90;999.90;;;;;;;1.01;100.00;98896.34;5052997;28;20095;-72
2022/11/26 06:28:39;;;;;;;1999.90;999.90;;;;;;;1.06;100.00;98899.25;5052815;28;20155;-73
2022/11/26 06:31:11;;;;;;;1999.90;999.90;;;;;;;1.19;100.00;98906.47;5052974;28;20079;-72
2022/11/26 06:33:36;;;;;;;1999.90;999.90;;;;;;;1.12;100.00;98913.72;5051517;28;20072;-73
2022/11/26 06:36:06;;;;;;;1999.90;999.90;;;;;;;1.11;100.00;98904.81;5053254;28;20052;-73
2022/11/26 06:38:32;;;;;;;1999.90;999.90;;;;;;;1.10;100.00;98913.13;5053010;28;20067;-74
2022/11/26 06:41:02;;;;;;;1999.90;999.90;;;;;;;1.04;100.00;98909.38;5052858;28;20056;-73
2022/11/26 06:43:28;;;;;;;1999.90;999.90;;;;;;;1.05;100.00;98919.97;5051176;28;20393;-73
2022/11/26 06:45:54;;;;;;;1999.90;999.90;;;;;;;1.15;100.00;98914.13;5052353;28;20041;-73
2022/11/26 06:48:24;;;;;;;1999.90;999.90;;;;;;;0.97;100.00;98922.84;5052747;28;20028;-74
2022/11/26 06:50:50;;;;;;;1999.90;999.90;;;;;;;1.02;100.00;98933.00;5052881;28;20109;-73
2022/11/26 06:53:16;;;;;;;1999.90;999.90;;;;;;;1.14;100.00;98925.09;5052296;28;20108;-73
2022/11/26 06:55:41;;;;;;;1999.90;999.90;;;;;;;1.16;100.00;98925.75;5051054;28;20446;-73
2022/11/26 06:58:06;;;;;;;1999.90;999.90;;;;;;;1.31;100.00;98945.19;5050962;28;20028;-74
2022/11/26 07:00:32;;;;;;;1999.90;999.90;;;;;;;1.08;100.00;98942.94;5050601;28;20044;-74
2022/11/26 07:02:59;;;;;;;1999.90;999.90;;;;;;;1.15;100.00;98946.47;5050785;28;20486;-74
2022/11/26 07:05:24;;;;;;;1999.90;999.90;;;;;;;1.40;100.00;98955.50;5051733;28;20045;-74
2022/11/26 07:07:50;;;;;;;1999.90;999.90;;;;;;;1.38;100.00;98951.38;5051614;28;20056;-73
2022/11/26 07:10:17;;;;;;;1999.90;999.90;;;;;;;1.39;100.00;98959.25;5049902;28;20068;-73
2022/11/26 07:12:43;;;;;;;1999.90;999.90;;;;;;;1.51;100.00;98957.53;5049546;28;20093;-73
2022/11/26 07:15:09;;;;;;;1999.90;999.90;;;;;;;1.57;100.00;98967.47;5051715;28;20382;-73
2022/11/26 07:17:34;;;;;;;1999.90;999.90;;;;;;;1.65;100.00;98979.06;5050687;28;20021;-74
2022/11/26 07:20:03;;;;;;;1999.90;999.90;;;;;;;1.81;100.00;98989.38;5051341;28;20040;-74
2022/11/26 07:22:28;;;;;;;1999.90;999.90;;;;;;;1.88;100.00;98990.19;5051434;28;20013;-74
2022/11/26 07:24:53;;;;;;;1999.90;999.90;;;;;;;1.86;100.00;98987.69;5051070;28;20110;-73
2022/11/26 07:27:19;;;;;;;1999.90;999.90;;;;;;;1.94;100.00;99000.91;5046608;28;20029;-75
2022/11/26 07:29:44;;;;;;;1999.90;999.90;;;;;;;2.03;100.00;98996.97;5047838;28;20025;-73
2022/11/26 07:32:09;;;;;;;1999.90;999.90;;;;;;;2.07;100.00;98995.47;5048695;28;20017;-74
2022/11/26 07:34:35;;;;;;;1999.90;999.90;;;;;;;2.12;100.00;99009.16;5047805;28;20029;-74
2022/11/26 07:37:00;;;;;;;1999.90;999.90;;;;;;;2.27;100.00;99008.88;5049306;28;20466;-74
2022/11/26 07:39:25;;;;;;;1999.90;999.90;;;;;;;2.32;100.00;99008.22;5048784;28;20546;-85
2022/11/26 07:41:51;;;;;;;1999.90;999.90;;;;;;;2.50;100.00;99005.63;5032754;28;20029;-76
2022/11/26 07:44:16;;;;;;;1999.90;999.90;;;;;;;2.57;100.00;99017.19;5044376;28;20025;-73
2022/11/26 07:46:41;;;;;;;1999.90;999.90;;;;;;;2.67;100.00;99017.53;5048673;28;20033;-75
2022/11/26 07:49:07;;;;;;;1999.90;999.90;;;;;;;2.65;100.00;99014.25;5046863;28;20013;-73
2022/11/26 07:51:35;;;;;;;1999.90;999.90;;;;;;;2.56;100.00;99016.38;5049537;28;20021;-72
2022/11/26 07:54:03;;;;;;;1999.90;999.90;;;;;;;2.42;100.00;99017.50;5045222;28;20044;-72
2022/11/26 07:56:29;;;;;;;1999.90;999.90;;;;;;;2.59;100.00;99025.91;5045999;28;20153;-74
2022/11/26 07:58:54;;;;;;;1999.90;999.90;;;;;;;2.66;100.00;99024.81;5047276;28;20067;-73
2022/11/26 08:01:22;;;;;;;1999.90;999.90;;;;;;;2.67;100.00;99022.94;5049716;28;20058;-74
2022/11/26 08:03:49;;;;;;;1999.90;999.90;;;;;;;2.73;100.00;99022.06;5047032;28;20040;-73
2022/11/26 08:06:17;;;;;;;1999.90;999.90;;;;;;;2.81;100.00;99029.91;5050230;28;20025;-73
2022/11/26 08:08:43;;;;;;;1999.90;999.90;;;;;;;2.84;100.00;99034.88;5051400;28;20033;-73
2022/11/26 08:11:26;;;;;;;1999.90;999.90;;;;;;;2.96;100.00;99032.28;5064894;28;20032;-73
2022/11/26 08:14:00;;;;;;;1999.90;999.90;;;;;;;2.98;100.00;99036.41;5049297;28;20039;-74
2022/11/26 08:16:26;;;;;;;1999.90;999.90;;;;;;;3.05;100.00;99053.41;5045263;28;20079;-74
2022/11/26 08:18:53;;;;;;;1999.90;999.90;;;;;;;3.07;100.00;99042.41;5052340;28;20021;-73
2022/11/26 08:21:19;;;;;;;1999.90;999.90;;;;;;;2.77;100.00;99050.28;5060019;28;20025;-72
2022/11/26 08:23:44;;;;;;;1999.90;999.90;;;;;;;2.82;100.00;99063.16;5049437;28;20470;-74
2022/11/26 08:26:13;;;;;;;1999.90;999.90;;;;;;;2.69;100.00;99059.47;5049565;28;20024;-72
2022/11/26 08:28:40;;;;;;;1999.90;999.90;;;;;;;2.92;100.00;99058.06;5046974;28;20021;-73
2022/11/26 08:31:07;;;;;;;1999.90;999.90;;;;;;;3.09;100.00;99065.44;5049124;28;20028;-73
2022/11/26 08:33:33;;;;;;;1999.90;999.90;;;;;;;3.14;100.00;99070.19;5048328;28;20033;-73
2022/11/26 08:36:00;;;;;;;1999.90;999.90;;;;;;;3.07;100.00;99072.94;5049416;28;20087;-74
2022/11/26 08:38:26;;;;;;;1999.90;999.90;;;;;;;3.06;100.00;99070.47;5049036;28;20025;-73
2022/11/26 08:40:53;;;;;;;1999.90;999.90;;;;;;;3.09;100.00;99070.03;5049782;28;20033;-73
2022/11/26 08:43:21;;;;;;;1999.90;999.90;;;;;;;3.29;100.00;99077.97;5050547;28;20025;-72
2022/11/26 08:45:55;;;;;;;1999.90;999.90;;;;;;;3.16;100.00;99074.31;5050274;28;20140;-73
2022/11/26 08:48:21;;;;;;;1999.90;999.90;;;;;;;3.16;100.00;99071.59;5049571;28;20100;-72
2022/11/26 08:50:46;;;;;;;1999.90;999.90;;;;;;;3.17;100.00;99081.38;5049456;28;20017;-73
2022/11/26 08:53:12;;;;;;;1999.90;999.90;;;;;;;3.20;100.00;99080.09;5049566;28;20028;-73
2022/11/26 08:55:37;;;;;;;1999.90;999.90;;;;;;;3.29;100.00;99095.00;5050510;28;20020;-73
2022/11/26 08:58:02;;;;;;;1999.90;999.90;;;;;;;3.21;100.00;99093.41;5051138;28;20029;-74
2022/11/26 09:00:28;;;;;;;1999.90;999.90;;;;;;;3.12;100.00;99086.63;5051080;28;20044;-73
2022/11/26 09:02:53;;;;;;;1999.90;999.90;;;;;;;3.10;100.00;99093.31;5050672;28;20060;-74
2022/11/26 09:05:18;;;;;;;1999.90;999.90;;;;;;;3.14;100.00;99097.19;5050219;28;20432;-73
2022/11/26 09:07:44;;;;;;;1999.90;999.90;;;;;;;3.10;100.00;99098.72;5046591;28;20640;-74
2022/11/26 09:10:09;;;;;;;1999.90;999.90;;;;;;;3.12;100.00;99113.66;5049627;28;20111;-73
2022/11/26 09:12:36;;;;;;;1999.90;999.90;;;;;;;3.15;100.00;99101.56;5055536;28;20025;-73
2022/11/26 09:15:02;;;;;;;1999.90;999.90;;;;;;;3.18;100.00;99101.97;5066087;28;20082;-72
2022/11/26 09:17:27;;;;;;;1999.90;999.90;;;;;;;3.15;100.00;99105.09;5054717;28;20032;-74
2022/11/26 09:19:53;;;;;;;1999.90;999.90;;;;;;;3.11;100.00;99100.34;5048600;28;20484;-73
2022/11/26 09:22:18;;;;;;;1999.90;999.90;;;;;;;3.10;100.00;99110.31;5045268;28;20543;-73
2022/11/26 09:24:43;;;;;;;1999.90;999.90;;;;;;;2.99;100.00;99108.34;5047500;28;20714;-73
2022/11/26 09:27:10;;;;;;;1999.90;999.90;;;;;;;3.05;100.00;99112.88;5048692;28;20109;-73
2022/11/26 09:29:36;;;;;;;1999.90;999.90;;;;;;;3.17;100.00;99105.72;5046975;28;20025;-73
2022/11/26 09:32:02;;;;;;;1999.90;999.90;;;;;;;3.18;100.00;99111.94;5046145;28;20110;-75
2022/11/26 09:34:27;;;;;;;1999.90;999.90;;;;;;;3.18;100.00;99111.94;5049278;28;20025;-74
2022/11/26 09:36:53;;;;;;;1999.90;999.90;;;;;;;3.21;100.00;99108.81;5050838;28;20024;-73
2022/11/26 09:39:18;;;;;;;1999.90;999.90;;;;;;;3.31;100.00;99111.00;5065259;28;20481;-74
2022/11/26 09:42:09;;;;;;;1999.90;999.90;;;;;;;3.23;100.00;99102.13;5058138;28;20027;-73
2022/11/26 09:44:38;;;;;;;1999.90;999.90;;;;;;;3.37;100.00;99104.72;5059169;28;20516;-73
2022/11/26 09:47:08;;;;;;;1999.90;999.90;;;;;;;3.37;100.00;99110.97;5068545;28;20055;-73
2022/11/26 09:50:02;;;;;;;1999.90;999.90;;;;;;;3.39;100.00;99108.03;5059495;28;20362;-74
2022/11/26 09:52:39;;;;;;;1999.90;999.90;;;;;;;3.55;100.00;99112.88;5058791;28;20106;-73
2022/11/26 09:55:14;;;;;;;1999.90;999.90;;;;;;;3.62;100.00;99108.25;5069930;28;20033;-72
2022/11/26 09:57:48;;;;;;;1999.90;999.90;;;;;;;3.61;100.00;99106.59;5060345;28;20021;-75
2022/11/26 10:00:24;;;;;;;1999.90;999.90;;;;;;;3.51;100.00;99101.69;5065522;28;20025;-74
2022/11/26 10:02:53;;;;;;;;;;;;;;;3.59;100.00;99111.41;5068950;28;20028;-74
2022/11/26 10:05:41;;;;;;;1999.90;999.90;;;;;;;3.54;100.00;99103.13;5041131;28;19924;-73
2022/11/26 10:08:13;;;;;;;1999.90;999.90;;;;;;;3.64;100.00;99103.44;5053396;28;20440;-73
2022/11/26 10:10:50;;;;;;;1999.90;999.90;;;;;;;3.91;100.00;99107.56;5057748;28;20021;-73
2022/11/26 10:13:28;;;;;;;1999.90;999.90;;;;;;;3.96;100.00;99101.44;5071327;28;20029;-72
2022/11/26 10:16:11;;;;;;;1999.90;999.90;;;;;;;4.01;100.00;99094.31;5053489;28;20067;-73
2022/11/26 10:18:51;;;;;;;1999.90;999.90;;;;;;;3.97;100.00;99098.53;5056630;28;20430;-75
2022/11/26 10:21:24;;;;;;;1999.90;999.90;;;;;;;3.94;100.00;99093.56;5055887;28;20122;-75
2022/11/26 10:23:57;;;;;;;1999.90;999.90;;;;;;;3.89;100.00;99097.97;5064949;28;20025;-72
2022/11/26 10:26:28;;;;;;;1999.90;999.90;;;;;;;3.95;100.00;99103.31;5065540;28;20049;-72
2022/11/26 10:29:29;;;;;;;1999.90;999.90;;;;;;;4.13;100.00;99106.06;5062263;28;20026;-73
2022/11/26 10:32:04;;;;;;;1999.90;999.90;;;;;;;4.27;100.00;99112.97;5071932;28;20029;-82
2022/11/26 10:34:38;;;;;;;1999.90;999.90;;;;;;;4.33;100.00;99100.41;5059755;28;20032;-74
2022/11/26 10:37:04;;;;;;;1999.90;999.90;;;;;;;4.32;100.00;99101.47;5057344;28;20388;-76
2022/11/26 10:39:29;;;;;;;1999.90;999.90;;;;;;;4.22;100.00;99098.47;5067846;28;20021;-74
2022/11/26 10:41:55;;;;;;;1999.90;999.90;;;;;;;4.11;100.00;99096.50;5062624;28;20123;-75
2022/11/26 10:44:29;;;;;;;1999.90;999.90;;;;;;;4.32;100.00;99098.75;5071327;28;20032;-75
2022/11/26 10:46:55;;;;;;;1999.90;999.90;;;;;;;4.33;100.00;99106.66;5059218;28;20033;-79
2022/11/26 10:49:28;;;;;;;1999.90;999.90;;;;;;;4.25;100.00;99109.66;5074841;28;20039;-78
2022/11/26 10:52:00;;;;;;;1999.90;999.90;;;;;;;4.38;100.00;99107.84;5062317;28;20027;-76
2022/11/26 10:54:33;;;;;;;1999.90;999.90;;;;;;;4.46;100.00;99111.06;5050800;28;20378;-74
2022/11/26 10:57:08;;;;;;;1999.90;999.90;;;;;;;4.66;100.00;99103.53;5066527;28;20028;-74
2022/11/26 10:59:43;;;;;;;1999.90;999.90;;;;;;;4.79;100.00;99099.81;5055458;28;20363;-74